Time;durP1;ratioP1;P1;durP2;ratioP2;P2;SDS_P1;SDS_P2;PMS_P1;PMS_P2;Temp;Humidity;BMP_temperature;BMP_pressure;BME280_temperature;BME280_humidity;BME280_pressure;Samples;Min_cycle;Max_cycle;Signal;HPM_P1;HPM_P2
2022/03/31 00:01:21;;;;;;;6.35;4.55;;;19.60;98.90;;;;;;4245101;27;20668;-72
2022/03/31 00:03:23;;;;;;;5.25;4.68;;;19.60;98.70;;;;;;4245332;27;20278;-72
2022/03/31 00:05:27;;;;;;;6.10;4.90;;;19.60;98.80;;;;;;4244837;27;20213;-72
2022/03/31 00:07:30;;;;;;;4.38;4.00;;;19.60;98.60;;;;;;4242711;27;20629;-72
2022/03/31 00:09:32;;;;;;;4.75;4.22;;;19.60;98.80;;;;;;4245225;27;20249;-71
2022/03/31 00:11:34;;;;;;;5.55;4.47;;;19.60;98.70;;;;;;4245144;27;20273;-72
2022/03/31 00:13:37;;;;;;;5.40;4.75;;;19.50;98.60;;;;;;4244567;27;20262;-71
2022/03/31 00:15:39;;;;;;;6.07;4.47;;;19.50;98.70;;;;;;4243388;27;20290;-72
2022/03/31 00:17:42;;;;;;;6.78;4.80;;;19.50;98.60;;;;;;4245193;27;20295;-72
2022/03/31 00:19:44;;;;;;;5.40;4.90;;;19.50;98.70;;;;;;4244710;27;20916;-72
2022/03/31 00:21:48;;;;;;;5.35;4.47;;;19.50;98.70;;;;;;4243534;27;20221;-71
2022/03/31 00:23:50;;;;;;;6.93;4.53;;;19.40;98.60;;;;;;4244609;27;20266;-72
2022/03/31 00:25:53;;;;;;;6.38;4.47;;;19.40;98.60;;;;;;4239681;27;21814;-72
2022/03/31 00:27:57;;;;;;;7.70;4.55;;;19.50;98.70;;;;;;4243320;27;20266;-72
2022/03/31 00:29:59;;;;;;;6.90;4.53;;;19.50;98.70;;;;;;4244236;27;20209;-71
2022/03/31 00:32:01;;;;;;;6.28;4.68;;;19.40;98.50;;;;;;4244459;27;20723;-71
2022/03/31 00:34:04;;;;;;;6.63;4.68;;;19.40;98.60;;;;;;4243416;27;20209;-72
2022/03/31 00:36:06;;;;;;;4.97;4.47;;;19.40;98.60;;;;;;4245069;27;20630;-71
2022/03/31 00:38:11;;;;;;;5.50;4.20;;;19.40;98.60;;;;;;4243076;27;20213;-71
2022/03/31 00:40:15;;;;;;;6.15;4.20;;;19.40;98.60;;;;;;4243350;27;20216;-71
2022/03/31 00:42:17;;;;;;;5.78;4.32;;;19.40;98.60;;;;;;4243710;27;20217;-71
2022/03/31 00:44:20;;;;;;;5.53;4.30;;;19.40;98.90;;;;;;4244254;27;20213;-71
2022/03/31 00:46:22;;;;;;;5.35;4.60;;;19.40;98.80;;;;;;4244305;27;20258;-71
2022/03/31 00:48:24;;;;;;;4.57;4.10;;;19.40;98.60;;;;;;4243749;27;20217;-71
2022/03/31 00:50:27;;;;;;;6.22;4.57;;;19.40;98.60;;;;;;4242650;27;20277;-71
2022/03/31 00:52:29;;;;;;;5.40;4.75;;;19.30;98.40;;;;;;4244223;27;20614;-71
2022/03/31 00:54:35;;;;;;;7.30;4.40;;;19.30;98.50;;;;;;4243673;27;20216;-71
2022/03/31 00:56:38;;;;;;;5.45;4.55;;;19.40;98.50;;;;;;4243220;27;20673;-72
2022/03/31 00:58:41;;;;;;;5.28;4.70;;;19.30;98.40;;;;;;4243651;27;20643;-72
2022/03/31 01:00:43;;;;;;;5.45;4.35;;;19.30;98.40;;;;;;4244073;27;20649;-72
2022/03/31 01:02:46;;;;;;;4.78;4.30;;;19.30;98.40;;;;;;4244326;27;20262;-72
2022/03/31 01:04:48;;;;;;;6.20;5.00;;;19.30;98.40;;;;;;4243603;27;20213;-71
2022/03/31 01:06:52;;;;;;;6.18;4.45;;;19.30;98.40;;;;;;4243134;27;20261;-71
2022/03/31 01:08:55;;;;;;;5.60;4.50;;;19.30;98.80;;;;;;4242099;27;21108;-71
2022/03/31 01:10:58;;;;;;;5.13;4.63;;;19.30;98.40;;;;;;4241357;27;20274;-72
2022/03/31 01:13:05;;;;;;;6.80;4.70;;;19.30;98.50;;;;;;4241502;27;20733;-71
2022/03/31 01:15:10;;;;;;;6.18;4.85;;;19.30;98.40;;;;;;4241845;27;20270;-71
2022/03/31 01:17:12;;;;;;;6.07;4.70;;;19.30;98.40;;;;;;4243492;27;20233;-71
2022/03/31 01:19:14;;;;;;;4.97;4.28;;;19.30;98.40;;;;;;4243477;27;20714;-71
2022/03/31 01:21:16;;;;;;;6.53;4.63;;;19.30;98.70;;;;;;4243158;27;20209;-71
2022/03/31 01:23:21;;;;;;;8.25;4.85;;;19.20;98.30;;;;;;4243786;27;20258;-72
2022/03/31 01:25:24;;;;;;;5.45;4.78;;;19.20;98.30;;;;;;4244297;27;20230;-72
2022/03/31 01:27:27;;;;;;;5.45;4.53;;;19.30;98.30;;;;;;4244108;27;20209;-71
2022/03/31 01:29:29;;;;;;;7.13;4.63;;;19.20;98.30;;;;;;4242310;27;20637;-71
2022/03/31 01:31:31;;;;;;;5.65;4.72;;;19.20;98.30;;;;;;4243408;27;20233;-71
2022/03/31 01:33:34;;;;;;;5.40;4.65;;;19.20;98.20;;;;;;4243995;27;20257;-71
2022/03/31 01:35:36;;;;;;;4.93;4.35;;;19.20;98.20;;;;;;4242520;27;20725;-71
2022/03/31 01:37:38;;;;;;;5.53;4.38;;;19.30;98.30;;;;;;4243715;27;20282;-72
2022/03/31 01:39:43;;;;;;;5.32;4.53;;;19.20;98.10;;;;;;4242344;28;20270;-72
2022/03/31 01:41:45;;;;;;;6.55;4.60;;;19.20;98.40;;;;;;4241860;27;20212;-71
2022/03/31 01:43:47;;;;;;;4.80;4.32;;;19.20;98.10;;;;;;4243850;27;20208;-72
2022/03/31 01:45:52;;;;;;;8.00;4.60;;;19.20;98.30;;;;;;4243520;27;20258;-72
2022/03/31 01:47:55;;;;;;;5.95;4.93;;;19.20;98.20;;;;;;4243084;28;20352;-72
2022/03/31 01:49:57;;;;;;;6.13;4.90;;;19.20;98.10;;;;;;4243280;27;20213;-72
2022/03/31 01:51:59;;;;;;;7.40;4.45;;;19.10;98.10;;;;;;4231473;28;20210;-72
2022/03/31 01:54:02;;;;;;;5.03;4.45;;;19.10;98.00;;;;;;4236243;28;20213;-72
2022/03/31 01:56:07;;;;;;;6.22;4.78;;;19.10;98.00;;;;;;4243950;27;20262;-72
2022/03/31 01:58:09;;;;;;;5.50;4.28;;;19.20;98.00;;;;;;4240650;28;20611;-72
2022/03/31 02:00:13;;;;;;;4.88;4.47;;;19.10;98.10;;;;;;4246262;27;20212;-72
2022/03/31 02:02:16;;;;;;;5.43;4.53;;;19.20;98.00;;;;;;4247038;27;20213;-72
2022/03/31 02:04:18;;;;;;;4.43;4.00;;;19.10;98.00;;;;;;4246438;27;20290;-72
2022/03/31 02:06:21;;;;;;;7.22;4.78;;;19.10;97.90;;;;;;4245250;27;20217;-72
2022/03/31 02:08:23;;;;;;;5.65;4.70;;;19.10;97.90;;;;;;4246643;27;20549;-71
2022/03/31 02:10:26;;;;;;;5.60;4.53;;;19.10;97.90;;;;;;4246947;27;20209;-72
2022/03/31 02:12:30;;;;;;;6.68;4.57;;;19.10;98.00;;;;;;4246764;27;20944;-71
2022/03/31 02:14:37;;;;;;;5.30;4.72;;;19.10;98.00;;;;;;4246002;27;20293;-71
2022/03/31 02:16:39;;;;;;;5.47;4.82;;;19.10;97.90;;;;;;4245283;27;20285;-72
2022/03/31 02:18:41;;;;;;;5.95;4.50;;;19.10;97.80;;;;;;4243581;27;20770;-72
2022/03/31 02:20:44;;;;;;;5.25;4.53;;;19.10;97.90;;;;;;4246833;27;20612;-72
2022/03/31 02:22:47;;;;;;;6.75;5.25;;;19.10;98.00;;;;;;4246259;27;20804;-72
2022/03/31 02:24:49;;;;;;;4.85;4.35;;;19.10;97.90;;;;;;4246813;27;20213;-72
2022/03/31 02:26:51;;;;;;;5.22;4.72;;;19.10;97.90;;;;;;4246525;27;20217;-72
2022/03/31 02:28:55;;;;;;;4.93;4.43;;;19.10;97.70;;;;;;4245598;27;20612;-72
2022/03/31 02:30:57;;;;;;;5.20;4.70;;;19.10;97.70;;;;;;4244478;27;20209;-72
2022/03/31 02:33:00;;;;;;;5.35;4.53;;;19.10;98.10;;;;;;4244529;27;20281;-71
2022/03/31 02:35:02;;;;;;;4.97;4.47;;;19.10;97.70;;;;;;4245646;27;20220;-71
2022/03/31 02:37:05;;;;;;;6.22;4.70;;;19.10;97.70;;;;;;4246707;27;20237;-72
2022/03/31 02:39:08;;;;;;;5.85;4.85;;;19.10;97.70;;;;;;4244411;27;20270;-72
2022/03/31 02:41:10;;;;;;;5.30;4.53;;;19.10;97.70;;;;;;4245450;27;20213;-72
2022/03/31 02:43:12;;;;;;;7.00;4.47;;;19.00;97.60;;;;;;4246272;27;20254;-72
2022/03/31 02:45:16;;;;;;;6.75;4.55;;;19.10;98.00;;;;;;4245579;27;20213;-71
2022/03/31 02:47:18;;;;;;;5.60;4.50;;;19.00;97.60;;;;;;4244473;27;20205;-71
2022/03/31 02:49:21;;;;;;;5.40;4.65;;;19.10;97.70;;;;;;4241981;27;20265;-71
2022/03/31 02:51:24;;;;;;;5.15;3.85;;;19.10;97.60;;;;;;4245990;27;20654;-72
2022/03/31 02:55:47;;;;;;;4.60;3.92;;;19.00;97.50;;;;;;4245745;27;20197;-72
2022/03/31 02:57:50;;;;;;;6.85;4.30;;;19.00;97.60;;;;;;4244341;27;20291;-72
2022/03/31 02:59:52;;;;;;;6.75;4.38;;;19.00;97.60;;;;;;4245468;27;20266;-71
2022/03/31 03:01:56;;;;;;;4.82;3.67;;;19.00;97.50;;;;;;4246365;27;20221;-71
2022/03/31 03:03:58;;;;;;;4.18;3.78;;;19.00;97.50;;;;;;4246070;27;20234;-72
2022/03/31 03:06:01;;;;;;;4.38;3.97;;;19.00;97.50;;;;;;4245455;27;20258;-71
2022/03/31 03:08:03;;;;;;;4.15;3.75;;;19.00;97.40;;;;;;4246122;27;20621;-71
2022/03/31 03:10:06;;;;;;;4.82;4.10;;;19.00;97.80;;;;;;4244949;27;20221;-72
2022/03/31 03:12:10;;;;;;;5.75;4.13;;;18.90;97.30;;;;;;4245301;27;20217;-72
2022/03/31 03:14:13;;;;;;;5.05;4.28;;;18.90;97.40;;;;;;4244857;27;20217;-72
2022/03/31 03:16:16;;;;;;;5.47;3.90;;;19.00;97.30;;;;;;4245580;27;20604;-71
2022/03/31 03:18:19;;;;;;;4.88;3.83;;;18.90;97.20;;;;;;4245995;27;20653;-71
2022/03/31 03:20:24;;;;;;;5.50;3.90;;;18.90;97.20;;;;;;4245898;27;20266;-72
2022/03/31 03:22:27;;;;;;;4.20;3.72;;;18.90;97.20;;;;;;4244234;27;20217;-71
2022/03/31 03:24:29;;;;;;;6.03;3.88;;;18.90;97.10;;;;;;4246106;27;20214;-72
2022/03/31 03:26:31;;;;;;;5.70;4.03;;;18.90;97.10;;;;;;4246076;27;20209;-72
2022/03/31 03:28:35;;;;;;;4.18;3.60;;;18.90;97.30;;;;;;4242437;27;20261;-72
2022/03/31 03:30:38;;;;;;;4.18;3.78;;;18.90;97.10;;;;;;4244293;27;20722;-72
2022/03/31 03:32:41;;;;;;;4.70;4.15;;;18.90;97.00;;;;;;4245289;27;20240;-72
2022/03/31 03:34:44;;;;;;;5.60;4.05;;;18.90;97.10;;;;;;4245563;27;20633;-72
2022/03/31 03:36:47;;;;;;;3.90;3.50;;;18.90;97.00;;;;;;4244337;27;20736;-72
2022/03/31 03:38:49;;;;;;;4.65;3.78;;;18.80;96.90;;;;;;4243988;27;20652;-72
2022/03/31 03:40:51;;;;;;;5.28;3.78;;;18.90;97.00;;;;;;4243552;27;20969;-71
2022/03/31 03:42:54;;;;;;;5.43;3.92;;;18.80;97.10;;;;;;4245595;27;20209;-71
2022/03/31 03:44:56;;;;;;;4.55;4.07;;;18.90;97.10;;;;;;4244287;27;20258;-72
2022/03/31 03:46:58;;;;;;;4.07;3.65;;;18.80;96.90;;;;;;4245410;27;20213;-72
2022/03/31 03:49:01;;;;;;;8.25;3.90;;;18.80;96.70;;;;;;4241691;27;20546;-72
2022/03/31 03:51:06;;;;;;;4.70;3.40;;;18.80;96.90;;;;;;4243552;27;21003;-72
2022/03/31 03:53:08;;;;;;;5.97;3.55;;;18.80;97.20;;;;;;4245191;27;20220;-72
2022/03/31 03:55:12;;;;;;;4.95;3.80;;;18.80;96.90;;;;;;4243198;27;20213;-72
2022/03/31 03:57:14;;;;;;;4.40;3.67;;;18.80;96.70;;;;;;4244377;27;20217;-72
2022/03/31 03:59:16;;;;;;;3.90;3.53;;;18.70;96.70;;;;;;4245046;27;20205;-72
2022/03/31 04:01:19;;;;;;;4.55;3.42;;;18.80;97.00;;;;;;4242135;27;20270;-72
2022/03/31 04:03:21;;;;;;;4.88;3.65;;;18.80;96.80;;;;;;4242660;27;20275;-72
2022/03/31 04:05:24;;;;;;;4.35;3.63;;;18.80;96.90;;;;;;4241346;27;20213;-72
2022/03/31 04:07:27;;;;;;;5.25;3.50;;;18.80;96.90;;;;;;4244947;27;20618;-72
2022/03/31 04:09:30;;;;;;;3.80;3.03;;;18.80;96.70;;;;;;4242530;27;20668;-72
2022/03/31 04:11:32;;;;;;;3.95;3.35;;;18.70;96.90;;;;;;4244858;27;20239;-71
2022/03/31 04:13:34;;;;;;;3.67;3.33;;;18.70;96.70;;;;;;4242160;27;20214;-72
2022/03/31 04:15:36;;;;;;;4.10;3.33;;;18.70;96.40;;;;;;4245069;27;20209;-72
2022/03/31 04:17:39;;;;;;;5.10;3.70;;;18.70;96.40;;;;;;4245044;27;20213;-72
2022/03/31 04:19:42;;;;;;;3.67;3.30;;;18.70;96.40;;;;;;4244036;27;20262;-72
2022/03/31 04:21:45;;;;;;;3.53;3.03;;;18.70;96.50;;;;;;4244969;27;20221;-71
2022/03/31 04:23:48;;;;;;;3.80;3.22;;;18.70;96.50;;;;;;4244195;27;20262;-72
2022/03/31 04:25:50;;;;;;;3.72;3.22;;;18.70;96.70;;;;;;4244686;27;20262;-72
2022/03/31 04:27:53;;;;;;;4.90;3.28;;;18.60;96.50;;;;;;4242387;27;20221;-71
2022/03/31 04:29:55;;;;;;;3.63;3.20;;;18.60;96.60;;;;;;4243604;27;20213;-71
2022/03/31 04:31:57;;;;;;;3.20;2.90;;;18.60;96.40;;;;;;4242125;27;20232;-72
2022/03/31 04:34:00;;;;;;;3.70;3.15;;;18.60;96.70;;;;;;4243377;27;20221;-71
2022/03/31 04:36:02;;;;;;;4.00;3.17;;;18.60;96.40;;;;;;4242540;27;20221;-71
2022/03/31 04:38:05;;;;;;;3.55;3.20;;;18.60;96.20;;;;;;4244554;27;20241;-71
2022/03/31 04:40:10;;;;;;;3.42;2.78;;;18.60;96.30;;;;;;4241430;27;20258;-72
2022/03/31 04:42:12;;;;;;;4.22;3.40;;;18.60;96.20;;;;;;4241686;27;20213;-72
2022/03/31 04:44:14;;;;;;;4.45;3.40;;;18.60;96.20;;;;;;4243212;27;20221;-71
2022/03/31 04:46:17;;;;;;;3.42;2.78;;;18.50;96.10;;;;;;4244613;27;20209;-72
2022/03/31 04:48:19;;;;;;;3.58;3.08;;;18.50;96.10;;;;;;4244294;27;20277;-72
2022/03/31 04:50:21;;;;;;;3.35;3.05;;;18.60;96.20;;;;;;4242748;27;20209;-72
2022/03/31 04:52:24;;;;;;;3.65;2.83;;;18.50;96.30;;;;;;4242334;27;20667;-72
2022/03/31 04:54:26;;;;;;;4.55;3.15;;;18.50;96.10;;;;;;4244782;27;20270;-71
2022/03/31 04:56:30;;;;;;;5.60;2.97;;;18.30;96.40;;;;;;4243291;27;20217;-72
2022/03/31 04:58:32;;;;;;;4.05;2.85;;;18.30;96.50;;;;;;4244700;27;20232;-72
2022/03/31 05:00:35;;;;;;;4.82;2.70;;;18.30;96.30;;;;;;4244352;27;20246;-72
2022/03/31 05:02:37;;;;;;;4.63;3.17;;;18.40;96.10;;;;;;4243673;27;20626;-72
2022/03/31 05:04:41;;;;;;;4.20;3.00;;;18.50;96.20;;;;;;4240896;27;20212;-72
2022/03/31 05:06:43;;;;;;;4.70;2.45;;;18.60;96.50;;;;;;4243835;27;20266;-71
2022/03/31 05:08:46;;;;;;;5.18;2.75;;;18.60;96.10;;;;;;4243685;27;20266;-72
2022/03/31 05:10:48;;;;;;;3.70;2.50;;;18.60;96.30;;;;;;4243930;27;20274;-71
2022/03/31 05:12:52;;;;;;;4.82;2.60;;;18.60;96.30;;;;;;4244423;27;20617;-72
2022/03/31 05:14:54;;;;;;;3.17;2.30;;;18.60;96.40;;;;;;4244217;27;20266;-72
2022/03/31 05:16:58;;;;;;;3.95;2.50;;;18.60;96.60;;;;;;4243885;27;20258;-71
2022/03/31 05:19:00;;;;;;;3.83;2.40;;;18.60;96.60;;;;;;4243764;27;20232;-72
2022/03/31 05:21:02;;;;;;;6.03;2.33;;;18.60;96.50;;;;;;4241216;27;20243;-71
2022/03/31 05:23:05;;;;;;;3.70;2.28;;;18.60;96.70;;;;;;4242373;27;20228;-72
2022/03/31 05:25:09;;;;;;;3.10;2.30;;;18.70;96.70;;;;;;4244156;27;20278;-71
2022/03/31 05:27:11;;;;;;;3.10;2.35;;;18.70;96.60;;;;;;4243093;27;20221;-71
2022/03/31 05:29:15;;;;;;;5.07;2.53;;;18.70;96.60;;;;;;4241057;27;20251;-72
2022/03/31 05:31:17;;;;;;;3.88;1.90;;;18.70;96.60;;;;;;4243887;27;20278;-71
2022/03/31 05:33:19;;;;;;;2.17;1.95;;;18.70;96.70;;;;;;4243407;27;20212;-71
2022/03/31 05:35:22;;;;;;;2.35;2.13;;;18.70;96.70;;;;;;4243936;27;20262;-71
2022/03/31 05:37:25;;;;;;;2.92;2.10;;;18.80;96.90;;;;;;4244234;27;20221;-72
2022/03/31 05:39:27;;;;;;;3.22;2.10;;;18.70;96.70;;;;;;4241773;27;20680;-71
2022/03/31 05:41:30;;;;;;;2.22;2.00;;;18.80;96.80;;;;;;4243616;28;20209;-72
2022/03/31 05:43:32;;;;;;;3.67;1.80;;;18.80;96.60;;;;;;4242130;27;20274;-71
2022/03/31 05:45:36;;;;;;;3.63;2.03;;;18.80;96.70;;;;;;4243733;27;20217;-71
2022/03/31 05:47:40;;;;;;;2.85;2.00;;;18.80;96.70;;;;;;4242464;28;20213;-71
2022/03/31 05:49:42;;;;;;;4.18;1.85;;;18.80;96.60;;;;;;4243975;27;20246;-71
2022/03/31 05:51:44;;;;;;;2.05;1.85;;;18.80;96.60;;;;;;4242390;28;20312;-72
2022/03/31 05:53:47;;;;;;;2.08;1.88;;;18.80;96.70;;;;;;4239717;27;20254;-71
2022/03/31 05:55:49;;;;;;;3.13;1.83;;;18.80;96.60;;;;;;4239563;28;20209;-71
2022/03/31 05:57:52;;;;;;;1.65;1.55;;;18.80;96.80;;;;;;4242593;28;20261;-71
2022/03/31 05:59:54;;;;;;;2.55;1.70;;;18.90;96.70;;;;;;4243618;27;20285;-71
2022/03/31 06:01:58;;;;;;;1.75;1.42;;;18.90;96.70;;;;;;4243322;27;20257;-71
2022/03/31 06:04:00;;;;;;;2.53;1.88;;;18.90;96.70;;;;;;4242736;28;20254;-72
2022/03/31 06:06:03;;;;;;;3.28;1.73;;;18.90;96.60;;;;;;4243906;27;20209;-71
2022/03/31 06:08:07;;;;;;;2.83;1.70;;;18.90;96.70;;;;;;4241501;28;20229;-71
2022/03/31 06:10:10;;;;;;;3.25;1.73;;;18.90;96.80;;;;;;4243835;27;20257;-71
2022/03/31 06:12:12;;;;;;;2.50;1.70;;;18.90;96.60;;;;;;4241526;28;20630;-72
2022/03/31 06:14:15;;;;;;;1.67;1.55;;;19.00;96.70;;;;;;4241658;27;20571;-72
2022/03/31 06:16:17;;;;;;;1.80;1.60;;;18.90;96.70;;;;;;4243446;27;20279;-72
2022/03/31 06:18:22;;;;;;;1.65;1.52;;;18.90;96.60;;;;;;4243340;28;20209;-72
2022/03/31 06:20:24;;;;;;;2.28;1.55;;;19.00;96.90;;;;;;4235374;28;20221;-71
2022/03/31 06:22:27;;;;;;;4.78;1.80;;;19.10;96.30;;;;;;4239086;27;20221;-71
2022/03/31 06:24:29;;;;;;;3.47;1.75;;;19.20;96.10;;;;;;4241785;27;20217;-71
2022/03/31 06:26:32;;;;;;;7.50;1.70;;;19.30;96.00;;;;;;4240488;27;20209;-71
2022/03/31 06:28:34;;;;;;;3.13;1.67;;;19.20;96.10;;;;;;4243213;27;20210;-71
2022/03/31 06:30:36;;;;;;;1.63;1.20;;;19.30;95.80;;;;;;4237843;27;20254;-71
2022/03/31 06:32:39;;;;;;;2.08;1.38;;;19.40;95.10;;;;;;4240609;27;20233;-71
2022/03/31 06:34:46;;;;;;;2.47;1.23;;;19.40;94.60;;;;;;4238127;28;20270;-71
2022/03/31 06:36:48;;;;;;;1.42;1.25;;;19.40;94.00;;;;;;4239749;28;20695;-71
2022/03/31 06:38:51;;;;;;;1.83;1.35;;;19.50;93.50;;;;;;4241672;27;20213;-71
2022/03/31 06:41:10;;;;;;;2.28;1.60;;;19.60;93.50;;;;;;4241620;27;20710;-72
2022/03/31 06:43:13;;;;;;;1.50;1.40;;;19.60;93.10;;;;;;4237067;27;20213;-72
2022/03/31 06:45:16;;;;;;;2.42;1.33;;;19.50;93.50;;;;;;4240433;27;20213;-72
2022/03/31 06:47:19;;;;;;;1.80;1.25;;;19.60;93.50;;;;;;4243955;27;20995;-72
2022/03/31 06:49:23;;;;;;;1.88;1.35;;;19.60;93.10;;;;;;4245936;27;20214;-72
2022/03/31 06:51:26;;;;;;;3.20;1.48;;;19.70;93.40;;;;;;4243685;27;20458;-72
2022/03/31 06:53:29;;;;;;;2.50;1.40;;;19.70;93.00;;;;;;4243009;27;20270;-72
2022/03/31 06:55:31;;;;;;;2.05;1.63;;;19.60;93.40;;;;;;4245162;27;20251;-72
2022/03/31 06:57:34;;;;;;;1.90;1.42;;;19.70;93.20;;;;;;4246309;27;20254;-72
2022/03/31 06:59:36;;;;;;;2.17;1.30;;;19.70;93.20;;;;;;4242627;27;20234;-71
2022/03/31 07:01:38;;;;;;;1.65;1.33;;;19.80;93.40;;;;;;4241922;27;20217;-72
2022/03/31 07:03:41;;;;;;;5.55;1.45;;;19.70;92.80;;;;;;4243195;27;20281;-72
2022/03/31 07:05:43;;;;;;;4.95;1.88;;;19.70;92.80;;;;;;4239277;27;20221;-71
2022/03/31 07:07:47;;;;;;;1.30;0.98;;;19.60;92.80;;;;;;4238131;27;20221;-72
2022/03/31 07:09:49;;;;;;;4.35;1.15;;;19.70;92.80;;;;;;4242629;27;21045;-71
2022/03/31 07:11:51;;;;;;;2.90;1.27;;;19.70;92.20;;;;;;4240743;27;20720;-71
2022/03/31 07:13:54;;;;;;;1.40;1.17;;;19.80;92.10;;;;;;4240853;27;20213;-71
2022/03/31 07:15:56;;;;;;;1.92;1.30;;;19.80;92.00;;;;;;4241969;27;20899;-72
2022/03/31 07:18:03;;;;;;;1.60;1.20;;;19.80;92.40;;;;;;4237878;27;20258;-72
2022/03/31 07:20:07;;;;;;;1.92;1.30;;;19.80;92.10;;;;;;4239656;27;20266;-73
2022/03/31 07:22:09;;;;;;;3.05;1.50;;;19.90;92.10;;;;;;4245312;27;20209;-73
2022/03/31 07:24:13;;;;;;;5.60;1.33;;;20.00;92.10;;;;;;4244267;27;20622;-73
2022/03/31 07:26:16;;;;;;;2.15;1.38;;;20.00;91.90;;;;;;4240720;27;20209;-73
2022/03/31 07:28:18;;;;;;;1.80;1.25;;;20.00;91.90;;;;;;4238760;27;20217;-72
2022/03/31 07:30:21;;;;;;;1.75;1.10;;;20.00;92.00;;;;;;4240744;27;20319;-73
2022/03/31 07:32:24;;;;;;;2.10;1.00;;;20.00;91.90;;;;;;4239073;27;20225;-73
2022/03/31 07:34:27;;;;;;;4.10;1.20;;;20.10;92.00;;;;;;4242044;27;20209;-73
2022/03/31 07:36:29;;;;;;;2.60;1.40;;;20.10;92.10;;;;;;4242896;27;20208;-74
2022/03/31 07:38:32;;;;;;;2.50;1.23;;;20.10;91.90;;;;;;4240229;27;20218;-75
2022/03/31 07:40:37;;;;;;;3.45;1.30;;;20.10;91.90;;;;;;4239099;27;20696;-72
2022/03/31 07:42:40;;;;;;;3.88;1.17;;;20.20;92.70;;;;;;4236712;27;20218;-72
2022/03/31 07:44:42;;;;;;;3.10;1.50;;;20.20;93.10;;;;;;4240898;27;20213;-72
2022/03/31 07:46:46;;;;;;;2.80;1.10;;;20.10;92.60;;;;;;4243330;27;20262;-73
2022/03/31 07:48:48;;;;;;;2.38;1.30;;;20.10;92.40;;;;;;4234745;27;20682;-72
2022/03/31 07:50:50;;;;;;;2.42;1.20;;;20.10;92.30;;;;;;4241986;27;20239;-72
2022/03/31 07:52:53;;;;;;;1.60;1.10;;;20.10;92.10;;;;;;4240533;27;20221;-73
2022/03/31 07:54:55;;;;;;;1.52;1.10;;;20.00;93.00;;;;;;4236276;27;20224;-72
2022/03/31 07:57:00;;;;;;;2.40;1.27;;;20.00;93.00;;;;;;4237686;27;20316;-72
2022/03/31 07:59:02;;;;;;;4.65;1.42;;;20.20;93.50;;;;;;4242248;27;20210;-72
2022/03/31 08:01:05;;;;;;;1.55;1.40;;;20.20;92.50;;;;;;4234391;27;20244;-71
2022/03/31 08:03:07;;;;;;;1.52;1.10;;;20.30;92.90;;;;;;4240459;27;20262;-73
2022/03/31 08:05:10;;;;;;;2.42;1.20;;;20.30;93.10;;;;;;4241275;27;20254;-72
2022/03/31 08:07:12;;;;;;;1.30;1.20;;;20.30;93.10;;;;;;4243537;27;20205;-73
2022/03/31 08:09:17;;;;;;;1.40;1.30;;;20.30;93.00;;;;;;4241403;27;20288;-71
2022/03/31 08:11:19;;;;;;;1.92;1.20;;;20.40;93.50;;;;;;4239110;27;20282;-71
2022/03/31 08:13:28;;;;;;;3.20;1.50;;;20.40;93.50;;;;;;4241936;27;20213;-72
2022/03/31 08:15:31;;;;;;;1.88;1.30;;;20.30;93.50;;;;;;4236941;27;20224;-73
2022/03/31 08:17:33;;;;;;;1.23;1.13;;;20.30;93.50;;;;;;4234433;27;20561;-72
2022/03/31 08:19:36;;;;;;;2.47;1.10;;;20.40;93.70;;;;;;4237729;27;20213;-72
2022/03/31 08:21:38;;;;;;;3.28;1.35;;;20.40;93.60;;;;;;4237917;27;20282;-72
2022/03/31 08:23:40;;;;;;;4.15;1.45;;;20.40;93.50;;;;;;4239553;27;20372;-72
2022/03/31 08:25:43;;;;;;;2.28;1.10;;;20.40;93.50;;;;;;4243253;27;20225;-72
2022/03/31 08:27:46;;;;;;;1.27;1.17;;;20.40;93.60;;;;;;4238611;27;20665;-72
2022/03/31 08:29:50;;;;;;;1.20;1.10;;;20.40;93.70;;;;;;4239344;27;20213;-72
2022/03/31 08:31:52;;;;;;;1.10;1.00;;;20.50;93.70;;;;;;4241036;27;20325;-71
2022/03/31 08:33:55;;;;;;;1.23;1.13;;;20.50;93.80;;;;;;4239672;27;20214;-72
2022/03/31 08:35:58;;;;;;;1.70;1.30;;;20.60;94.30;;;;;;4236940;27;20213;-72
2022/03/31 08:38:00;;;;;;;4.30;1.50;;;20.50;93.70;;;;;;4242615;27;20267;-72
2022/03/31 08:40:03;;;;;;;2.17;1.20;;;20.50;93.70;;;;;;4238596;27;20618;-72
2022/03/31 08:42:07;;;;;;;2.72;1.20;;;20.60;93.90;;;;;;4238828;27;20209;-72
2022/03/31 08:44:10;;;;;;;2.45;1.20;;;20.50;93.90;;;;;;4240838;27;20221;-71
2022/03/31 08:46:17;;;;;;;2.67;1.10;;;20.50;93.90;;;;;;4240418;27;20254;-72
2022/03/31 08:48:19;;;;;;;1.88;1.20;;;20.60;93.90;;;;;;4238652;27;20289;-71
2022/03/31 08:50:23;;;;;;;1.58;1.20;;;20.60;93.80;;;;;;4238691;27;20273;-71
2022/03/31 08:52:25;;;;;;;1.10;1.00;;;20.60;93.90;;;;;;4234305;27;20209;-71
2022/03/31 08:54:29;;;;;;;2.92;1.25;;;20.60;93.90;;;;;;4240102;27;20220;-72
2022/03/31 08:56:32;;;;;;;2.15;1.10;;;20.60;94.30;;;;;;4235791;27;20262;-71
2022/03/31 08:58:34;;;;;;;1.73;1.00;;;20.60;93.80;;;;;;4238771;27;20290;-72
2022/03/31 09:00:36;;;;;;;1.30;0.90;;;20.60;93.90;;;;;;4237540;27;20544;-73
2022/03/31 09:02:41;;;;;;;2.33;1.20;;;20.60;93.80;;;;;;4238934;27;20269;-72
2022/03/31 09:04:43;;;;;;;6.07;1.20;;;20.60;94.10;;;;;;4240341;27;20265;-71
2022/03/31 09:06:48;;;;;;;1.40;1.20;;;20.60;93.80;;;;;;4236610;27;20212;-72
2022/03/31 09:08:57;;;;;;;1.67;1.05;;;20.70;93.90;;;;;;4238963;27;20258;-72
2022/03/31 09:11:00;;;;;;;1.38;0.93;;;20.70;94.00;;;;;;4236468;27;20653;-72
2022/03/31 09:13:04;;;;;;;2.78;1.15;;;20.60;94.00;;;;;;4239320;27;20225;-71
2022/03/31 09:15:11;;;;;;;2.95;1.30;;;20.70;94.00;;;;;;4242301;27;20261;-72
2022/03/31 09:17:15;;;;;;;1.65;1.00;;;20.50;93.80;;;;;;4242853;27;20265;-73
2022/03/31 09:19:19;;;;;;;1.40;1.05;;;20.60;94.00;;;;;;4237624;27;20217;-72
2022/03/31 09:21:23;;;;;;;2.72;1.25;;;20.70;94.10;;;;;;4237381;27;20273;-72
2022/03/31 09:23:28;;;;;;;1.33;0.90;;;20.80;93.70;;;;;;4235467;27;20291;-72
2022/03/31 09:25:32;;;;;;;5.15;1.30;;;20.80;94.20;;;;;;4237710;27;20615;-71
2022/03/31 09:27:34;;;;;;;3.22;1.17;;;20.70;93.90;;;;;;4232024;27;20258;-73
2022/03/31 09:29:37;;;;;;;2.53;0.90;;;20.60;93.90;;;;;;4238107;27;20229;-72
2022/03/31 09:31:40;;;;;;;1.20;1.10;;;20.70;94.60;;;;;;4241051;27;20306;-72
2022/03/31 09:33:45;;;;;;;2.13;1.13;;;20.70;94.20;;;;;;4233481;27;20261;-73
2022/03/31 09:35:56;;;;;;;2.30;1.17;;;20.70;94.30;;;;;;4244666;27;20278;-74
2022/03/31 09:37:59;;;;;;;3.05;1.20;;;20.60;94.20;;;;;;4235984;27;20619;-73
2022/03/31 09:40:01;;;;;;;2.38;1.25;;;20.80;94.40;;;;;;4240526;28;20258;-73
2022/03/31 09:42:11;;;;;;;1.38;1.10;;;20.90;94.40;;;;;;4237094;27;20229;-75
2022/03/31 09:44:16;;;;;;;3.22;1.00;;;20.90;94.50;;;;;;4236384;27;20249;-73
2022/03/31 09:46:20;;;;;;;1.65;1.15;;;21.00;94.40;;;;;;4237801;27;20217;-74
2022/03/31 09:48:25;;;;;;;1.35;1.00;;;21.00;94.50;;;;;;4241312;27;20221;-73
2022/03/31 09:50:36;;;;;;;1.98;1.10;;;21.10;94.40;;;;;;4239873;27;20606;-73
2022/03/31 09:52:42;;;;;;;1.88;1.05;;;21.10;94.40;;;;;;4237088;27;20340;-73
2022/03/31 09:54:45;;;;;;;1.90;1.08;;;21.20;94.70;;;;;;4235929;27;20267;-72
2022/03/31 09:56:47;;;;;;;1.42;1.00;;;21.20;94.50;;;;;;4236881;28;20283;-73
2022/03/31 09:58:49;;;;;;;2.30;1.25;;;21.10;94.50;;;;;;4240712;27;20217;-73
2022/03/31 10:00:52;;;;;;;3.38;1.10;;;21.10;94.60;;;;;;4237578;27;20216;-73
2022/03/31 10:02:55;;;;;;;2.30;1.05;;;21.10;95.00;;;;;;4236403;27;20629;-74
2022/03/31 10:04:58;;;;;;;1.75;1.00;;;21.20;94.60;;;;;;4237165;27;20609;-73
2022/03/31 10:07:02;;;;;;;1.23;0.95;;;21.20;94.40;;;;;;4242347;28;20585;-74
2022/03/31 10:09:09;;;;;;;1.85;1.05;;;21.20;94.40;;;;;;4243301;27;20261;-74
2022/03/31 10:11:12;;;;;;;1.38;0.80;;;21.20;94.40;;;;;;4240745;27;20209;-73
2022/03/31 10:13:19;;;;;;;2.00;1.00;;;21.20;94.50;;;;;;4238674;28;20266;-72
2022/03/31 10:15:30;;;;;;;1.33;0.95;;;21.20;94.60;;;;;;4236154;27;20247;-72
2022/03/31 10:17:33;;;;;;;2.08;1.10;;;21.20;94.50;;;;;;4234449;28;20225;-72
2022/03/31 10:19:36;;;;;;;1.42;1.02;;;21.10;94.20;;;;;;4238827;27;20209;-74
2022/03/31 10:21:39;;;;;;;1.30;1.00;;;21.10;94.60;;;;;;4238074;27;20238;-72
2022/03/31 10:26:23;;;;;;;2.28;1.15;;;21.20;94.70;;;;;;4242391;27;20201;-72
2022/03/31 10:28:25;;;;;;;2.53;0.93;;;21.20;94.80;;;;;;4238494;27;20274;-71
2022/03/31 10:30:28;;;;;;;1.38;1.10;;;21.20;94.90;;;;;;4240572;27;21803;-72
2022/03/31 10:32:30;;;;;;;2.85;1.20;;;21.30;95.00;;;;;;4241478;27;20228;-71
2022/03/31 10:34:35;;;;;;;1.90;0.90;;;21.30;95.00;;;;;;4238778;27;20246;-73
2022/03/31 10:36:40;;;;;;;1.10;0.98;;;21.30;94.90;;;;;;4244343;27;20258;-73
2022/03/31 10:38:53;;;;;;;1.58;1.00;;;21.30;94.60;;;;;;4236005;27;20213;-72
2022/03/31 10:41:03;;;;;;;2.53;1.23;;;21.30;94.70;;;;;;4239631;27;20213;-72
2022/03/31 10:43:18;;;;;;;2.90;1.00;;;21.30;94.60;;;;;;4241726;27;20201;-73
2022/03/31 10:45:21;;;;;;;2.53;1.17;;;21.40;94.70;;;;;;4240407;27;20217;-72
2022/03/31 10:47:32;;;;;;;2.53;0.90;;;21.40;94.80;;;;;;4234689;27;20217;-72